createdAt,value
2019-05-17T00:01:16.655Z,11.10
2019-05-17T00:03:47.223Z,11.10
2019-05-17T00:06:17.776Z,11.10
2019-05-17T00:08:48.407Z,11.10
2019-05-17T00:11:20.214Z,11.10
2019-05-17T00:13:50.765Z,11.00
2019-05-17T00:16:21.659Z,11.00
2019-05-17T00:18:52.335Z,11.00
2019-05-17T00:21:22.887Z,11.00
2019-05-17T00:23:53.848Z,11.00
2019-05-17T00:26:26.797Z,10.90
2019-05-17T00:28:56.649Z,10.80
2019-05-17T00:31:27.144Z,10.80
2019-05-17T00:33:57.767Z,10.80
2019-05-17T00:36:28.540Z,10.70
2019-05-17T00:38:59.193Z,10.70
2019-05-17T00:41:29.846Z,10.70
2019-05-17T00:44:00.455Z,10.70
2019-05-17T00:46:34.398Z,10.80
2019-05-17T00:49:06.494Z,10.80
2019-05-17T00:51:37.226Z,10.80
2019-05-17T00:54:08.163Z,10.80
2019-05-17T00:56:38.896Z,10.70
2019-05-17T00:59:10.567Z,10.70
2019-05-17T01:01:41.082Z,10.70
2019-05-17T01:04:11.676Z,10.70
2019-05-17T01:06:44.055Z,10.70
2019-05-17T01:09:17.030Z,10.70
2019-05-17T01:11:47.522Z,10.80
2019-05-17T01:14:19.133Z,10.80
2019-05-17T01:16:49.632Z,10.80
2019-05-17T01:19:21.209Z,10.90
2019-05-17T01:21:51.728Z,10.90
2019-05-17T01:24:22.293Z,10.90
2019-05-17T01:26:52.961Z,10.90
2019-05-17T01:29:23.536Z,10.90
2019-05-17T01:31:54.133Z,10.90
2019-05-17T01:34:27.065Z,10.90
2019-05-17T01:36:57.254Z,10.90
2019-05-17T01:39:27.751Z,10.90
2019-05-17T01:41:58.322Z,11.00
2019-05-17T01:44:28.971Z,11.10
2019-05-17T01:46:59.579Z,11.10
2019-05-17T01:49:30.052Z,11.10
2019-05-17T01:52:00.690Z,11.10
2019-05-17T01:54:31.351Z,11.10
2019-05-17T01:57:01.925Z,11.10
2019-05-17T01:59:32.541Z,11.10
2019-05-17T02:02:07.166Z,11.10
2019-05-17T02:04:38.510Z,11.10
2019-05-17T02:07:09.246Z,11.10
2019-05-17T02:09:41.775Z,11.10
2019-05-17T02:12:12.645Z,11.10
2019-05-17T02:14:43.223Z,11.20
2019-05-17T02:17:13.866Z,11.20
2019-05-17T02:19:46.440Z,11.20
2019-05-17T02:22:16.835Z,11.30
2019-05-17T02:24:48.472Z,11.30
2019-05-17T02:27:21.403Z,11.30
2019-05-17T02:29:52.000Z,11.30
2019-05-17T02:32:23.547Z,11.30
2019-05-17T02:34:54.179Z,11.20
2019-05-17T02:37:24.737Z,11.20
2019-05-17T02:40:02.713Z,11.20
2019-05-17T02:42:27.894Z,11.20
2019-05-17T02:44:58.699Z,11.20
2019-05-17T02:47:29.304Z,11.20
2019-05-17T02:50:00.045Z,11.20
2019-05-17T02:52:32.920Z,11.20
2019-05-17T02:55:04.100Z,11.20
2019-05-17T02:57:34.927Z,11.20
2019-05-17T03:00:05.905Z,11.20
2019-05-17T03:02:36.588Z,11.20
2019-05-17T03:05:08.535Z,11.20
2019-05-17T03:07:39.366Z,11.20
2019-05-17T03:10:18.317Z,11.10
2019-05-17T03:12:44.535Z,11.10
2019-05-17T03:15:14.374Z,11.00
2019-05-17T03:17:44.941Z,11.00
2019-05-17T03:20:15.406Z,10.90
2019-05-17T03:22:45.917Z,10.90
2019-05-17T03:25:16.568Z,10.90
2019-05-17T03:27:47.093Z,10.90
2019-05-17T03:30:18.833Z,10.80
2019-05-17T03:32:55.438Z,10.80
2019-05-17T03:35:26.400Z,10.80
2019-05-17T03:37:54.573Z,10.80
2019-05-17T03:40:56.480Z,10.80
2019-05-17T03:42:57.436Z,10.70
2019-05-17T03:45:28.026Z,10.70
2019-05-17T03:47:58.629Z,10.70
2019-05-17T03:50:29.417Z,10.70
2019-05-17T03:53:02.343Z,10.70
2019-05-17T03:55:33.233Z,10.70
2019-05-17T03:58:04.564Z,10.70
2019-05-17T04:00:35.717Z,10.70
2019-05-17T04:03:06.247Z,10.70
2019-05-17T04:05:36.756Z,10.70
2019-05-17T04:08:07.620Z,10.70
2019-05-17T04:10:38.096Z,10.70
2019-05-17T04:13:08.668Z,10.70
2019-05-17T04:15:39.177Z,10.70
2019-05-17T04:18:12.791Z,10.70
2019-05-17T04:20:43.320Z,10.70
2019-05-17T04:23:14.087Z,10.70
2019-05-17T04:25:44.615Z,10.70
2019-05-17T04:28:15.117Z,10.70
2019-05-17T04:30:45.599Z,10.70
2019-05-17T04:33:16.108Z,10.80
2019-05-17T04:35:46.671Z,10.80
2019-05-17T04:38:17.296Z,10.80
2019-05-17T04:40:47.777Z,10.80
2019-05-17T04:43:18.329Z,10.90
2019-05-17T04:45:48.967Z,10.90
2019-05-17T04:48:19.612Z,10.90
2019-05-17T04:50:53.325Z,11.00
2019-05-17T04:53:23.388Z,11.00
2019-05-17T04:55:54.315Z,11.00
2019-05-17T04:58:25.015Z,11.00
2019-05-17T05:00:55.681Z,11.00
2019-05-17T05:03:26.312Z,11.00
2019-05-17T05:05:56.786Z,11.00
2019-05-17T05:08:27.299Z,11.10
2019-05-17T05:10:57.886Z,11.10
2019-05-17T05:13:28.460Z,11.10
2019-05-17T05:15:59.421Z,11.10
2019-05-17T05:18:32.483Z,11.20
2019-05-17T05:21:03.802Z,11.20
2019-05-17T05:23:35.674Z,11.20
2019-05-17T05:26:06.434Z,11.20
2019-05-17T05:28:37.166Z,11.20
2019-05-17T05:31:07.730Z,11.30
2019-05-17T05:33:38.256Z,11.30
2019-05-17T05:36:08.762Z,11.30
2019-05-17T05:38:39.319Z,11.30
2019-05-17T05:41:12.083Z,11.30
2019-05-17T05:43:42.268Z,11.30
2019-05-17T05:46:12.886Z,11.40
2019-05-17T05:48:43.455Z,11.30
2019-05-17T05:51:13.953Z,11.40
2019-05-17T05:53:44.432Z,11.30
2019-05-17T05:56:14.887Z,11.30
2019-05-17T05:58:45.384Z,11.30
2019-05-17T06:01:16.061Z,11.40
2019-05-17T06:03:46.579Z,11.40
2019-05-17T06:06:17.165Z,11.40
2019-05-17T06:08:47.797Z,11.50
2019-05-17T06:11:18.322Z,11.40
2019-05-17T06:13:48.890Z,11.50
2019-05-17T06:16:19.415Z,11.40
2019-05-17T06:18:51.632Z,11.40
2019-05-17T06:21:22.682Z,11.40
2019-05-17T06:23:53.341Z,11.50
2019-05-17T06:26:23.905Z,11.60
2019-05-17T06:28:54.323Z,11.60
2019-05-17T06:31:25.810Z,11.60
2019-05-17T06:33:56.385Z,11.60
2019-05-17T06:36:27.019Z,11.60
2019-05-17T06:38:57.525Z,11.60
2019-05-17T06:41:28.038Z,11.60
2019-05-17T06:43:58.683Z,11.60
2019-05-17T06:46:29.251Z,11.60
2019-05-17T06:48:59.786Z,11.70
2019-05-17T06:51:31.604Z,11.70
2019-05-17T06:54:02.583Z,11.70
2019-05-17T06:56:33.243Z,11.80
2019-05-17T06:59:03.753Z,11.80
2019-05-17T07:01:34.682Z,11.80
2019-05-17T07:04:05.403Z,11.90
2019-05-17T07:06:36.834Z,11.90
2019-05-17T07:09:09.878Z,11.90
2019-05-17T07:11:40.063Z,11.90
2019-05-17T07:14:10.892Z,11.80
2019-05-17T07:16:41.655Z,11.90
2019-05-17T07:19:12.265Z,11.80
2019-05-17T07:21:42.902Z,11.80
2019-05-17T07:24:13.621Z,11.80
2019-05-17T07:26:44.442Z,11.80
2019-05-17T07:29:15.043Z,11.70
2019-05-17T07:31:45.749Z,11.70
2019-05-17T07:34:16.407Z,11.70
2019-05-17T07:36:47.271Z,11.70
2019-05-17T07:39:20.310Z,11.80
2019-05-17T07:41:50.211Z,11.80
2019-05-17T07:44:20.996Z,11.80
2019-05-17T07:46:51.946Z,11.80
2019-05-17T07:49:22.549Z,11.70
2019-05-17T07:51:53.354Z,11.70
2019-05-17T07:54:24.065Z,11.70
2019-05-17T07:56:54.793Z,11.70
2019-05-17T07:59:25.357Z,11.80
2019-05-17T08:01:56.045Z,11.90
2019-05-17T08:04:26.585Z,11.90
2019-05-17T08:06:59.809Z,11.90
2019-05-17T08:09:30.735Z,11.90
2019-05-17T08:12:01.836Z,11.90
2019-05-17T08:14:33.554Z,11.80
2019-05-17T08:17:04.285Z,11.80
2019-05-17T08:19:34.855Z,11.90
2019-05-17T08:22:05.473Z,11.90
2019-05-17T08:24:36.017Z,11.90
2019-05-17T08:27:06.789Z,12.00
2019-05-17T08:29:37.311Z,12.10
2019-05-17T08:32:09.631Z,12.20
2019-05-17T08:34:40.273Z,12.30
2019-05-17T08:37:10.795Z,12.40
2019-05-17T08:39:41.351Z,12.40
2019-05-17T08:42:12.419Z,12.40
2019-05-17T08:44:42.913Z,12.40
2019-05-17T08:47:13.419Z,12.40
2019-05-17T08:49:43.922Z,12.30
2019-05-17T08:52:14.404Z,12.40
2019-05-17T08:54:46.142Z,12.40
2019-05-17T08:57:16.677Z,12.40
2019-05-17T08:59:49.584Z,12.40
2019-05-17T09:02:19.983Z,12.40
2019-05-17T09:04:50.634Z,12.40
2019-05-17T09:07:21.120Z,12.40
2019-05-17T09:09:51.608Z,12.50
2019-05-17T09:12:22.156Z,12.50
2019-05-17T09:14:52.625Z,12.60
2019-05-17T09:17:23.215Z,12.70
2019-05-17T09:19:54.454Z,12.60
2019-05-17T09:22:26.275Z,12.60
2019-05-17T09:24:56.854Z,12.50
2019-05-17T09:27:30.013Z,12.40
2019-05-17T09:30:01.345Z,12.50
2019-05-17T09:32:32.707Z,12.50
2019-05-17T09:35:03.177Z,12.40
2019-05-17T09:37:33.955Z,12.40
2019-05-17T09:40:04.692Z,12.40
2019-05-17T09:42:35.149Z,12.40
2019-05-17T09:45:05.940Z,12.50
2019-05-17T09:47:36.562Z,12.40
2019-05-17T09:50:09.674Z,12.50
2019-05-17T09:52:40.763Z,12.60
2019-05-17T09:55:11.962Z,12.60
2019-05-17T09:57:42.412Z,12.40
2019-05-17T10:00:13.788Z,12.50
2019-05-17T10:02:44.343Z,12.50
2019-05-17T10:05:14.848Z,12.40
2019-05-17T10:07:45.374Z,12.30
2019-05-17T10:10:15.927Z,12.10
2019-05-17T10:12:46.483Z,12.00
2019-05-17T10:15:17.031Z,12.00
2019-05-17T10:17:47.948Z,11.80
2019-05-17T10:20:19.982Z,11.70
2019-05-17T10:22:50.778Z,11.60
2019-05-17T10:25:21.286Z,11.70
2019-05-17T10:27:51.865Z,11.70
2019-05-17T10:30:22.445Z,11.80
2019-05-17T10:32:52.984Z,11.70
2019-05-17T10:35:23.474Z,11.60
2019-05-17T10:37:53.971Z,11.60
2019-05-17T10:40:24.670Z,11.50
2019-05-17T10:42:55.143Z,11.50
2019-05-17T10:45:25.698Z,11.40
2019-05-17T10:47:56.263Z,11.40
2019-05-17T10:50:26.762Z,11.20
2019-05-17T10:52:57.342Z,11.10
2019-05-17T10:55:30.092Z,11.10
2019-05-17T10:58:00.432Z,11.10
2019-05-17T11:00:31.330Z,11.10
2019-05-17T11:03:02.147Z,11.00
2019-05-17T11:05:32.669Z,11.00
2019-05-17T11:08:03.217Z,11.00
2019-05-17T11:10:33.728Z,10.90
2019-05-17T11:13:04.686Z,11.00
2019-05-17T11:15:35.172Z,11.10
2019-05-17T11:18:05.755Z,11.10
2019-05-17T11:20:36.334Z,11.10
2019-05-17T11:23:06.865Z,11.20
2019-05-17T11:25:37.453Z,11.20
2019-05-17T11:28:07.976Z,11.30
2019-05-17T11:30:38.465Z,11.30
2019-05-17T11:33:08.935Z,11.50
2019-05-17T11:35:39.485Z,11.40
2019-05-17T11:38:10.037Z,11.40
2019-05-17T11:40:40.520Z,11.40
2019-05-17T11:43:11.036Z,11.40
2019-05-17T11:45:41.553Z,11.30
2019-05-17T11:48:12.100Z,11.30
2019-05-17T11:50:42.608Z,11.20
2019-05-17T11:53:13.102Z,11.10
2019-05-17T11:55:43.612Z,11.00
2019-05-17T11:58:14.127Z,10.90
2019-05-17T12:00:44.715Z,11.00
2019-05-17T12:03:16.064Z,11.00
2019-05-17T12:05:46.558Z,10.90
2019-05-17T12:08:17.042Z,10.90
2019-05-17T12:10:47.695Z,10.80
2019-05-17T12:13:19.618Z,10.80
2019-05-17T12:15:50.087Z,10.90
2019-05-17T12:18:20.665Z,11.00
2019-05-17T12:20:51.237Z,11.10
2019-05-17T12:23:21.738Z,11.10
2019-05-17T12:25:52.229Z,11.10
2019-05-17T12:28:22.765Z,11.10
2019-05-17T12:30:53.274Z,11.10
2019-05-17T12:33:23.929Z,11.20
2019-05-17T12:35:54.409Z,11.30
2019-05-17T12:38:25.071Z,11.40
2019-05-17T12:40:55.605Z,11.40
2019-05-17T12:43:26.087Z,11.50
2019-05-17T12:46:00.488Z,11.40
2019-05-17T12:48:29.259Z,11.30
2019-05-17T12:50:59.886Z,11.30
2019-05-17T12:53:31.184Z,11.20
2019-05-17T12:56:01.704Z,11.30
2019-05-17T12:58:32.284Z,11.30
2019-05-17T13:01:02.910Z,11.40
2019-05-17T13:03:33.382Z,11.60
2019-05-17T13:06:03.999Z,11.60
2019-05-17T13:08:34.576Z,11.60
2019-05-17T13:11:05.381Z,11.70
2019-05-17T13:13:35.993Z,11.80
2019-05-17T13:16:17.301Z,11.80
2019-05-17T13:18:38.613Z,11.60
2019-05-17T13:21:09.351Z,11.60
2019-05-17T13:23:39.929Z,11.50
2019-05-17T13:26:10.428Z,11.60
2019-05-17T13:28:40.994Z,11.70
2019-05-17T13:31:12.582Z,11.80
2019-05-17T13:33:43.035Z,11.70
2019-05-17T13:36:13.516Z,11.80
2019-05-17T13:38:44.140Z,11.80
2019-05-17T13:41:14.761Z,11.70
2019-05-17T13:43:45.317Z,11.70
2019-05-17T13:46:15.817Z,11.60
2019-05-17T13:48:46.350Z,11.70
2019-05-17T13:51:16.883Z,11.70
2019-05-17T13:53:48.555Z,11.70
2019-05-17T13:56:19.156Z,11.80
2019-05-17T13:58:49.699Z,11.90
2019-05-17T14:01:20.191Z,12.10
2019-05-17T14:03:50.762Z,12.20
2019-05-17T14:06:22.156Z,12.40
2019-05-17T14:08:52.802Z,12.50
2019-05-17T14:11:23.313Z,12.50
2019-05-17T14:13:53.873Z,12.50
2019-05-17T14:16:24.566Z,12.50
2019-05-17T14:18:55.023Z,12.60
2019-05-17T14:21:25.563Z,12.60
2019-05-17T14:23:57.212Z,12.60
2019-05-17T14:31:27.330Z,12.70
2019-05-17T14:33:57.905Z,12.70
2019-05-17T14:36:28.420Z,12.70
2019-05-17T14:39:00.174Z,12.60
2019-05-17T14:41:32.422Z,12.60
2019-05-17T14:44:02.916Z,12.60
2019-05-17T14:46:33.383Z,12.60
2019-05-17T14:49:03.893Z,12.60
2019-05-17T14:51:34.434Z,12.60
2019-05-17T14:54:05.406Z,12.60
2019-05-17T14:59:05.758Z,13.00
2019-05-17T15:01:36.302Z,13.40
2019-05-17T15:04:06.868Z,13.40
2019-05-17T15:06:37.366Z,13.60
2019-05-17T15:09:11.335Z,13.80
2019-05-17T15:11:40.391Z,14.00
2019-05-17T15:14:11.042Z,14.20
2019-05-17T15:16:41.560Z,15.10
2019-05-17T15:19:12.017Z,15.50
2019-05-17T15:21:42.694Z,15.20
2019-05-17T15:24:13.143Z,14.90
2019-05-17T15:26:43.640Z,15.00
2019-05-17T15:29:14.139Z,15.10
2019-05-17T15:31:44.666Z,15.30
2019-05-17T15:34:15.158Z,15.30
2019-05-17T15:36:45.731Z,15.10
2019-05-17T15:39:16.364Z,15.30
2019-05-17T15:41:46.944Z,15.20
2019-05-17T15:44:17.478Z,15.20
2019-05-17T15:46:48.400Z,15.20
2019-05-17T15:49:18.923Z,15.50
2019-05-17T15:51:49.452Z,15.60
2019-05-17T15:54:19.963Z,15.50
2019-05-17T15:56:50.507Z,15.40
2019-05-17T15:59:20.943Z,15.30
2019-05-17T16:01:51.431Z,15.30
2019-05-17T16:04:21.974Z,15.50
2019-05-17T16:06:52.826Z,15.40
2019-05-17T16:09:23.473Z,15.10
2019-05-17T16:11:54.029Z,15.10
2019-05-17T16:14:24.536Z,15.20
2019-05-17T16:16:56.018Z,15.50
2019-05-17T16:19:26.637Z,15.90
2019-05-17T16:21:57.222Z,16.10
2019-05-17T16:24:27.728Z,16.30
2019-05-17T16:26:58.233Z,16.30
2019-05-17T16:29:28.810Z,16.50
2019-05-17T16:31:59.226Z,16.40
2019-05-17T16:34:29.716Z,16.10
2019-05-17T16:37:00.167Z,16.20
2019-05-17T16:39:30.730Z,16.40
2019-05-17T16:42:01.372Z,16.20
2019-05-17T16:44:31.904Z,15.80
2019-05-17T16:47:03.653Z,15.80
2019-05-17T16:49:34.100Z,15.70
2019-05-17T16:52:04.833Z,15.70
2019-05-17T16:54:35.320Z,15.80
2019-05-17T16:57:05.878Z,16.00
2019-05-17T16:59:36.428Z,16.10
2019-05-17T17:02:06.950Z,16.20
2019-05-17T17:04:37.396Z,16.20
2019-05-17T17:07:07.988Z,16.30
2019-05-17T17:09:38.639Z,16.00
2019-05-17T17:12:09.117Z,15.80
2019-05-17T17:14:39.700Z,15.90
2019-05-17T17:17:12.557Z,15.80
2019-05-17T17:19:42.348Z,15.70
2019-05-17T17:22:12.969Z,15.70
2019-05-17T17:24:43.506Z,15.70
2019-05-17T17:27:14.078Z,15.70
2019-05-17T17:29:44.540Z,15.70
2019-05-17T17:32:21.459Z,15.70
2019-05-17T17:34:47.185Z,15.60
2019-05-17T17:37:17.757Z,15.60
2019-05-17T17:39:48.243Z,15.60
2019-05-17T17:42:18.734Z,15.30
2019-05-17T17:44:49.309Z,15.30
2019-05-17T17:47:19.774Z,15.30
2019-05-17T17:49:50.278Z,15.30
2019-05-17T17:52:20.854Z,15.30
2019-05-17T17:54:51.566Z,15.30
2019-05-17T17:57:22.096Z,15.20
2019-05-17T17:59:55.527Z,15.20
2019-05-17T18:02:25.003Z,15.20
2019-05-17T18:04:55.523Z,15.20
2019-05-17T18:07:26.113Z,15.10
2019-05-17T18:09:56.792Z,15.00
2019-05-17T18:12:27.256Z,14.90
2019-05-17T18:14:58.793Z,14.90
2019-05-17T18:17:29.370Z,15.00
2019-05-17T18:19:59.902Z,14.90
2019-05-17T18:22:30.672Z,14.90
2019-05-17T18:25:01.429Z,14.90
2019-05-17T18:27:32.087Z,14.80
2019-05-17T18:30:02.612Z,14.70
2019-05-17T18:32:34.542Z,14.70
2019-05-17T18:35:05.244Z,14.70
2019-05-17T18:37:36.826Z,14.70
2019-05-17T18:40:07.677Z,14.70
2019-05-17T18:42:38.182Z,14.60
2019-05-17T18:45:09.052Z,14.60
2019-05-17T18:47:39.655Z,14.50
2019-05-17T18:50:10.640Z,14.50
2019-05-17T18:52:41.307Z,14.40
2019-05-17T18:55:12.120Z,14.40
2019-05-17T18:57:42.781Z,14.30
2019-05-17T19:00:26.176Z,14.20
2019-05-17T19:02:56.793Z,14.20
2019-05-17T19:05:27.284Z,14.10
2019-05-17T19:07:57.880Z,14.00
2019-05-17T19:10:28.401Z,14.00
2019-05-17T19:12:59.001Z,13.90
2019-05-17T19:15:29.614Z,13.80
2019-05-17T19:18:00.115Z,13.80
2019-05-17T19:20:30.748Z,13.70
2019-05-17T19:23:01.557Z,13.70
2019-05-17T19:25:32.019Z,13.60
2019-05-17T19:28:02.556Z,13.50
2019-05-17T19:30:33.088Z,13.50
2019-05-17T19:33:03.711Z,13.40
2019-05-17T19:35:34.301Z,13.40
2019-05-17T19:38:04.927Z,13.40
2019-05-17T19:40:35.497Z,13.40
2019-05-17T19:43:06.271Z,13.30
2019-05-17T19:45:36.877Z,13.30
2019-05-17T19:48:07.512Z,13.30
2019-05-17T19:50:38.035Z,13.30
2019-05-17T19:53:08.608Z,13.30
2019-05-17T19:55:39.078Z,13.20
2019-05-17T19:58:09.704Z,13.20
2019-05-17T20:00:40.177Z,13.20
2019-05-17T20:03:11.030Z,13.20
2019-05-17T20:05:41.628Z,13.10
2019-05-17T20:08:12.258Z,13.10
2019-05-17T20:10:43.109Z,13.00
2019-05-17T20:13:14.037Z,13.00
2019-05-17T20:15:44.803Z,13.00
2019-05-17T20:18:15.377Z,13.00
2019-05-17T20:20:45.927Z,12.90
2019-05-17T20:23:16.471Z,12.90
2019-05-17T20:25:46.921Z,12.80
2019-05-17T20:28:17.519Z,12.80
2019-05-17T20:30:48.027Z,12.80
2019-05-17T20:33:18.584Z,12.80
2019-05-17T20:35:49.161Z,12.70
2019-05-17T20:38:19.724Z,12.70
2019-05-17T20:40:50.295Z,12.70
2019-05-17T20:43:20.808Z,12.70
2019-05-17T20:45:51.283Z,12.70
2019-05-17T20:48:21.769Z,12.60
2019-05-17T20:50:52.287Z,12.60
2019-05-17T20:53:22.893Z,12.60
2019-05-17T20:55:53.375Z,12.60
2019-05-17T20:58:23.950Z,12.60
2019-05-17T21:00:54.628Z,12.50
2019-05-17T21:03:25.459Z,12.50
2019-05-17T21:05:57.060Z,12.50
2019-05-17T21:08:27.726Z,12.50
2019-05-17T21:10:58.261Z,12.40
2019-05-17T21:13:28.990Z,12.40
2019-05-17T21:15:59.465Z,12.40
2019-05-17T21:18:29.964Z,12.50
2019-05-17T21:21:00.416Z,12.40
2019-05-17T21:23:30.919Z,12.40
2019-05-17T21:26:01.412Z,12.40
2019-05-17T21:28:31.921Z,12.40
2019-05-17T21:31:02.714Z,12.40
2019-05-17T21:33:33.222Z,12.40
2019-05-17T21:36:03.756Z,12.40
2019-05-17T21:38:34.360Z,12.30
2019-05-17T21:41:04.838Z,12.30
2019-05-17T21:43:35.347Z,12.30
2019-05-17T21:46:05.855Z,12.20
2019-05-17T21:48:36.323Z,12.20
2019-05-17T21:51:06.819Z,12.20
2019-05-17T21:53:37.352Z,12.20
2019-05-17T21:56:07.915Z,12.10
2019-05-17T21:58:38.416Z,12.10
2019-05-17T22:01:16.345Z,12.10
2019-05-17T22:03:47.005Z,12.10
2019-05-17T22:06:17.612Z,12.10
2019-05-17T22:08:48.066Z,12.10
2019-05-17T22:11:18.613Z,12.00
2019-05-17T22:13:49.183Z,12.00
2019-05-17T22:16:20.382Z,12.00
2019-05-17T22:18:51.028Z,12.00
2019-05-17T22:21:21.527Z,11.90
2019-05-17T22:23:52.034Z,11.90
2019-05-17T22:26:22.543Z,11.90
2019-05-17T22:28:53.010Z,11.90
2019-05-17T22:31:23.556Z,11.90
2019-05-17T22:33:54.217Z,11.80
2019-05-17T22:36:24.794Z,11.80
2019-05-17T22:38:55.365Z,11.80
2019-05-17T22:41:25.876Z,11.80
2019-05-17T22:43:56.584Z,11.80
2019-05-17T22:46:35.515Z,11.70
2019-05-17T22:48:59.416Z,11.70
2019-05-17T22:51:30.041Z,11.70
2019-05-17T22:54:00.502Z,11.70
2019-05-17T22:56:31.064Z,11.70
2019-05-17T22:59:01.642Z,11.80
2019-05-17T23:01:32.242Z,11.80
2019-05-17T23:04:02.733Z,11.80
2019-05-17T23:06:33.255Z,11.80
2019-05-17T23:09:04.662Z,11.80
2019-05-17T23:11:35.220Z,11.80
2019-05-17T23:14:05.724Z,11.90
2019-05-17T23:16:50.496Z,11.90
2019-05-17T23:19:09.090Z,11.80
2019-05-17T23:21:40.083Z,11.80
2019-05-17T23:24:10.585Z,11.70
2019-05-17T23:26:41.150Z,11.80
2019-05-17T23:29:11.644Z,11.80
2019-05-17T23:31:42.130Z,11.70
2019-05-17T23:34:12.622Z,11.70
2019-05-17T23:36:43.494Z,11.70
2019-05-17T23:39:14.256Z,11.70
2019-05-17T23:41:44.826Z,11.70
2019-05-17T23:44:15.398Z,11.70
2019-05-17T23:46:46.295Z,11.70
2019-05-17T23:49:16.875Z,11.70
2019-05-17T23:51:47.464Z,11.70
2019-05-17T23:54:18.020Z,11.70
2019-05-17T23:56:48.495Z,11.70
2019-05-17T23:59:18.999Z,11.70
